createdAt,value
2023-03-06T00:03:55.507Z,1.60
2023-03-06T00:09:11.358Z,1.40
2023-03-06T00:14:27.119Z,1.60
2023-03-06T00:19:42.859Z,1.60
2023-03-06T00:24:58.856Z,1.60
2023-03-06T00:30:20.917Z,1.90
2023-03-06T00:35:39.967Z,2.00
2023-03-06T00:40:55.857Z,2.00
2023-03-06T00:46:11.740Z,2.10
2023-03-06T00:51:28.063Z,1.80
2023-03-06T00:56:43.696Z,2.00
2023-03-06T01:02:00.245Z,2.00
2023-03-06T01:07:16.274Z,2.10
2023-03-06T01:12:32.186Z,2.00
2023-03-06T01:17:52.072Z,1.90
2023-03-06T01:23:07.692Z,1.60
2023-03-06T01:28:24.350Z,1.50
2023-03-06T01:33:40.298Z,1.30
2023-03-06T01:38:56.046Z,1.30
2023-03-06T01:44:14.067Z,1.60
2023-03-06T01:49:36.825Z,1.60
2023-03-06T01:54:57.153Z,1.60
2023-03-06T02:00:18.354Z,1.50
2023-03-06T02:05:34.847Z,1.40
2023-03-06T02:11:02.724Z,1.50
2023-03-06T02:16:21.583Z,1.60
2023-03-06T02:21:38.236Z,1.70
2023-03-06T02:26:54.836Z,1.60
2023-03-06T02:32:10.841Z,1.60
2023-03-06T02:37:28.890Z,1.70
2023-03-06T02:42:50.770Z,1.40
2023-03-06T02:48:07.257Z,0.90
2023-03-06T02:53:22.833Z,0.50
2023-03-06T02:58:39.149Z,0.60
2023-03-06T03:03:54.703Z,0.60
2023-03-06T03:09:10.579Z,0.40
2023-03-06T03:14:26.580Z,0.30
2023-03-06T03:19:42.495Z,0.20
2023-03-06T03:24:58.355Z,0.10
2023-03-06T03:30:15.256Z,-0.10
2023-03-06T03:35:31.263Z,0.00
2023-03-06T03:40:47.186Z,0.20
2023-03-06T03:46:03.228Z,0.30
2023-03-06T03:51:20.065Z,0.00
2023-03-06T03:56:36.422Z,-0.20
2023-03-06T04:01:53.026Z,0.00
2023-03-06T04:07:10.156Z,0.00
2023-03-06T04:12:26.105Z,0.00
2023-03-06T04:17:41.980Z,0.00
2023-03-06T04:22:57.873Z,-0.20
2023-03-06T04:28:14.823Z,-0.10
2023-03-06T04:33:30.965Z,-0.20
2023-03-06T04:38:47.087Z,-0.30
2023-03-06T04:44:03.286Z,-0.40
2023-03-06T04:49:19.020Z,-0.50
2023-03-06T04:54:34.832Z,-0.30
2023-03-06T04:59:51.266Z,-0.30
2023-03-06T05:05:07.149Z,-0.40
2023-03-06T05:10:23.543Z,-0.60
2023-03-06T05:15:42.345Z,-0.70
2023-03-06T05:21:00.173Z,-1.00
2023-03-06T05:26:15.990Z,-0.70
2023-03-06T05:31:31.704Z,-0.70
2023-03-06T05:36:47.937Z,-0.70
2023-03-06T05:42:03.974Z,-0.80
2023-03-06T05:47:19.595Z,-0.70
2023-03-06T05:53:01.133Z,-0.70
2023-03-06T05:58:17.058Z,-0.80
2023-03-06T06:03:33.141Z,-0.60
2023-03-06T06:08:49.144Z,-0.30
2023-03-06T06:14:04.755Z,0.20
2023-03-06T06:19:22.066Z,0.40
2023-03-06T06:24:37.992Z,0.70
2023-03-06T06:29:53.827Z,1.10
2023-03-06T06:35:10.216Z,1.40
2023-03-06T06:40:27.783Z,1.70
2023-03-06T06:45:44.455Z,2.90
2023-03-06T06:51:00.977Z,2.60
2023-03-06T06:56:16.929Z,2.50
2023-03-06T07:01:32.815Z,2.00
2023-03-06T07:06:48.645Z,2.60
2023-03-06T07:12:04.319Z,3.10
2023-03-06T07:17:19.967Z,3.40
2023-03-06T07:22:49.928Z,3.00
2023-03-06T07:28:07.160Z,3.10
2023-03-06T07:33:22.750Z,3.60
2023-03-06T07:38:38.747Z,4.70
2023-03-06T07:43:54.565Z,4.30
2023-03-06T07:49:10.368Z,5.10
2023-03-06T07:54:26.266Z,6.10
2023-03-06T07:59:42.276Z,6.50
2023-03-06T08:04:58.285Z,7.10
2023-03-06T08:10:15.903Z,8.00
2023-03-06T08:15:31.560Z,8.80
2023-03-06T08:20:46.952Z,8.30
2023-03-06T08:26:27.523Z,8.60
2023-03-06T08:31:45.152Z,8.40
2023-03-06T08:37:00.786Z,9.50
2023-03-06T08:42:16.890Z,9.80
2023-03-06T08:47:34.480Z,11.10
2023-03-06T08:52:50.100Z,11.60
2023-03-06T08:58:06.861Z,10.70
2023-03-06T09:03:23.540Z,11.00
2023-03-06T09:08:43.229Z,10.00
2023-03-06T09:13:59.430Z,10.90
2023-03-06T09:19:15.329Z,9.90
2023-03-06T09:24:31.551Z,9.30
2023-03-06T09:29:47.173Z,9.50
2023-03-06T09:35:03.268Z,9.50
2023-03-06T09:40:43.072Z,9.60
2023-03-06T09:45:59.616Z,10.70
2023-03-06T09:51:19.454Z,9.60
2023-03-06T09:56:37.061Z,9.50
2023-03-06T10:02:20.429Z,9.30
2023-03-06T10:07:54.664Z,9.30
2023-03-06T10:13:25.407Z,8.60
2023-03-06T10:18:41.259Z,8.80
2023-03-06T10:24:25.198Z,8.60
2023-03-06T10:30:03.407Z,8.00
2023-03-06T10:35:25.888Z,7.60
2023-03-06T10:40:54.537Z,7.70
2023-03-06T10:46:13.611Z,7.60
2023-03-06T10:51:31.091Z,7.60
2023-03-06T10:56:48.131Z,8.00
2023-03-06T11:02:27.720Z,7.60
2023-03-06T11:07:59.678Z,7.70
2023-03-06T11:13:24.230Z,7.70
2023-03-06T11:18:42.972Z,7.70
2023-03-06T11:24:23.197Z,7.80
2023-03-06T11:29:47.348Z,7.70
2023-03-06T11:35:16.216Z,7.80
2023-03-06T11:40:43.695Z,7.80
2023-03-06T11:46:25.571Z,8.00
2023-03-06T11:51:43.300Z,8.20
2023-03-06T11:57:08.223Z,8.10
2023-03-06T12:02:58.289Z,8.20
2023-03-06T12:08:28.836Z,8.10
2023-03-06T12:14:16.717Z,8.30
2023-03-06T12:19:35.259Z,8.30
2023-03-06T12:25:18.042Z,8.40
2023-03-06T12:30:36.854Z,8.40
2023-03-06T12:36:22.021Z,8.40
2023-03-06T12:41:48.602Z,8.70
2023-03-06T12:47:11.400Z,8.60
2023-03-06T12:52:31.427Z,8.50
2023-03-06T12:57:49.091Z,8.50
2023-03-06T13:03:45.077Z,8.50
2023-03-06T13:09:17.816Z,8.50
2023-03-06T13:14:34.333Z,8.30
2023-03-06T13:20:13.562Z,8.40
2023-03-06T13:25:29.530Z,8.70
2023-03-06T13:30:46.439Z,8.40
2023-03-06T13:36:29.400Z,8.40
2023-03-06T13:41:56.406Z,8.30
2023-03-06T13:47:30.378Z,8.30
2023-03-06T13:53:24.366Z,8.50
2023-03-06T13:59:14.374Z,8.60
2023-03-06T14:04:38.422Z,8.50
2023-03-06T14:10:13.855Z,8.80
2023-03-06T14:15:37.296Z,9.00
2023-03-06T14:21:02.853Z,8.90
2023-03-06T14:26:33.720Z,9.40
2023-03-06T14:31:52.103Z,9.10
2023-03-06T14:37:21.104Z,9.00
2023-03-06T14:42:37.792Z,9.10
2023-03-06T14:47:54.372Z,8.70
2023-03-06T14:53:17.959Z,8.40
2023-03-06T14:58:39.468Z,8.20
2023-03-06T15:03:59.234Z,8.10
2023-03-06T15:09:21.079Z,8.10
2023-03-06T15:14:42.086Z,8.20
2023-03-06T15:20:01.486Z,8.20
2023-03-06T15:25:30.952Z,8.20
2023-03-06T15:31:21.439Z,8.10
2023-03-06T15:36:48.914Z,8.00
2023-03-06T15:42:26.955Z,8.00
2023-03-06T15:47:44.971Z,8.00
2023-03-06T15:53:00.883Z,7.80
2023-03-06T15:58:20.808Z,7.70
2023-03-06T16:03:36.825Z,7.70
2023-03-06T16:08:53.879Z,7.60
2023-03-06T16:14:37.394Z,7.50
2023-03-06T16:19:53.241Z,7.50
2023-03-06T16:25:09.544Z,7.40
2023-03-06T16:30:28.872Z,7.30
2023-03-06T16:35:46.783Z,7.30
2023-03-06T16:41:02.608Z,7.10
2023-03-06T16:46:22.261Z,7.10
2023-03-06T16:51:39.975Z,7.10
2023-03-06T16:56:55.725Z,7.00
2023-03-06T17:02:12.436Z,6.60
2023-03-06T17:07:29.195Z,6.10
2023-03-06T17:12:44.993Z,5.60
2023-03-06T17:18:00.920Z,5.30
2023-03-06T17:23:17.232Z,5.20
2023-03-06T17:28:33.313Z,4.90
2023-03-06T17:33:49.678Z,4.80
2023-03-06T17:39:06.387Z,4.60
2023-03-06T17:44:22.526Z,4.70
2023-03-06T17:49:38.673Z,4.50
2023-03-06T17:54:54.585Z,4.30
2023-03-06T18:00:11.355Z,4.10
2023-03-06T18:05:27.359Z,3.90
2023-03-06T18:10:43.823Z,3.60
2023-03-06T18:16:00.861Z,3.50
2023-03-06T18:21:16.969Z,3.40
2023-03-06T18:26:33.329Z,3.30
2023-03-06T18:31:50.684Z,3.10
2023-03-06T18:37:06.417Z,3.00
2023-03-06T18:42:22.256Z,3.10
2023-03-06T18:47:38.729Z,2.90
2023-03-06T18:52:54.732Z,2.90
2023-03-06T18:58:10.526Z,2.80
2023-03-06T19:03:26.282Z,2.70
2023-03-06T19:08:42.360Z,2.90
2023-03-06T19:13:59.539Z,3.00
2023-03-06T19:19:15.381Z,3.00
2023-03-06T19:24:31.345Z,2.90
2023-03-06T19:29:47.065Z,2.80
2023-03-06T19:35:03.713Z,2.90
2023-03-06T19:40:20.357Z,3.00
2023-03-06T19:45:41.474Z,2.80
2023-03-06T19:50:56.995Z,2.90
2023-03-06T19:56:17.958Z,2.60
2023-03-06T20:01:34.684Z,2.40
2023-03-06T20:06:52.128Z,2.30
2023-03-06T20:12:08.368Z,2.20
2023-03-06T20:17:24.014Z,2.10
2023-03-06T20:22:40.011Z,2.10
2023-03-06T20:27:56.015Z,2.10
2023-03-06T20:33:12.025Z,1.90
2023-03-06T20:38:27.980Z,1.80
2023-03-06T20:43:44.247Z,1.80
2023-03-06T20:49:00.694Z,1.90
2023-03-06T20:54:17.542Z,2.00
2023-03-06T20:59:33.467Z,2.20
2023-03-06T21:04:49.556Z,2.00
2023-03-06T21:10:06.808Z,2.20
2023-03-06T21:15:27.304Z,2.50
2023-03-06T21:20:43.339Z,2.30
2023-03-06T21:25:59.247Z,2.30
2023-03-06T21:31:17.981Z,2.30
2023-03-06T21:36:34.402Z,2.00
2023-03-06T21:41:50.383Z,1.80
2023-03-06T21:47:06.495Z,1.90
2023-03-06T21:52:21.987Z,1.90
2023-03-06T21:57:37.952Z,1.70
2023-03-06T22:02:53.624Z,1.80
2023-03-06T22:08:09.453Z,1.80
2023-03-06T22:13:25.587Z,1.70
2023-03-06T22:18:45.766Z,1.80
2023-03-06T22:24:02.157Z,1.70
2023-03-06T22:29:17.886Z,1.80
2023-03-06T22:34:33.671Z,1.70
2023-03-06T22:39:49.518Z,1.70
2023-03-06T22:45:06.349Z,1.50
2023-03-06T22:50:22.572Z,1.50
2023-03-06T22:55:38.667Z,1.30
2023-03-06T23:00:54.614Z,1.40
2023-03-06T23:06:11.748Z,1.20
2023-03-06T23:11:29.147Z,1.20
2023-03-06T23:16:44.985Z,1.20
2023-03-06T23:22:00.580Z,1.20
2023-03-06T23:27:17.288Z,1.40
2023-03-06T23:32:34.062Z,1.30
2023-03-06T23:37:50.127Z,1.40
2023-03-06T23:43:06.131Z,1.40
2023-03-06T23:48:22.479Z,1.60
2023-03-06T23:53:38.226Z,1.60
2023-03-06T23:58:54.883Z,1.60
